createdAt,value
2024-05-09T00:09:12.150Z,9.8
2024-05-09T00:19:12.477Z,9.8
2024-05-09T00:29:12.558Z,9.7
2024-05-09T00:39:12.752Z,9.6
2024-05-09T00:49:12.995Z,9.4
2024-05-09T01:09:13.371Z,9.2
2024-05-09T01:19:13.697Z,9
2024-05-09T01:29:13.806Z,8.9
2024-05-09T01:39:13.964Z,8.8
2024-05-09T01:49:14.248Z,8.7
2024-05-09T01:59:14.387Z,8.7
2024-05-09T02:09:14.586Z,8.6
2024-05-09T02:19:15.026Z,8.5
2024-05-09T02:29:15.102Z,8.5
2024-05-09T02:39:15.174Z,8.4
2024-05-09T02:49:15.445Z,8.3
2024-05-09T02:59:15.613Z,8.1
2024-05-09T03:09:15.773Z,8.1
2024-05-09T03:19:16.126Z,8
2024-05-09T03:29:16.200Z,8
2024-05-09T03:39:16.391Z,7.9
2024-05-09T03:59:16.836Z,8
2024-05-09T04:09:16.991Z,7.8
2024-05-09T04:19:17.260Z,7.7
2024-05-09T04:29:17.455Z,7.6
2024-05-09T04:39:17.602Z,7.6
2024-05-09T04:49:18.003Z,7.8
2024-05-09T05:09:18.209Z,8.2
2024-05-09T05:29:20.698Z,9.2
2024-05-09T05:39:18.802Z,9.8
2024-05-09T05:49:19.107Z,10.4
2024-05-09T06:19:19.773Z,12.2
2024-05-09T07:09:20.593Z,14.5
2024-05-09T07:19:20.852Z,14.9
2024-05-09T07:29:21.021Z,15.5
2024-05-09T07:39:21.218Z,15.7
2024-05-09T07:59:21.588Z,16.3
2024-05-09T08:09:21.895Z,16.6
2024-05-09T08:19:22.142Z,16.9
2024-05-09T08:29:22.206Z,17.2
2024-05-09T08:39:22.379Z,17.5
2024-05-09T08:49:22.731Z,18
2024-05-09T08:59:22.790Z,18.4
2024-05-09T09:09:23.045Z,18.7
2024-05-09T09:19:23.399Z,19.1
2024-05-09T09:29:23.372Z,19.3
2024-05-09T09:39:23.567Z,19.5
2024-05-09T09:49:23.796Z,19.3
2024-05-09T09:59:23.960Z,20
2024-05-09T10:09:24.178Z,20.5
2024-05-09T10:19:24.451Z,20
2024-05-09T10:29:24.548Z,19
2024-05-09T10:49:25.004Z,19
2024-05-09T10:59:25.139Z,19.7
2024-05-09T11:09:25.323Z,20.3
2024-05-09T11:19:25.660Z,21
2024-05-09T11:29:25.734Z,21.3
2024-05-09T11:39:25.936Z,21.1
2024-05-09T11:59:26.306Z,21.7
2024-05-09T12:09:26.523Z,22.3
2024-05-09T12:29:26.899Z,22.7
2024-05-09T12:39:27.094Z,23.1
2024-05-09T12:49:27.443Z,22.5
2024-05-09T12:59:27.492Z,21.8
2024-05-09T13:09:27.707Z,21.5
2024-05-09T13:19:27.907Z,20.8
2024-05-09T13:29:28.097Z,20.9
2024-05-09T13:39:28.315Z,20.9
2024-05-09T13:49:28.478Z,21.1
2024-05-09T13:59:28.668Z,22.4
2024-05-09T14:09:28.892Z,22.4
2024-05-09T14:19:29.056Z,22.5
2024-05-09T14:29:29.252Z,22.8
2024-05-09T14:39:29.468Z,22.8
2024-05-09T14:49:29.705Z,22.8
2024-05-09T14:59:29.837Z,22.7
2024-05-09T15:09:30.036Z,22.5
2024-05-09T15:29:30.429Z,21.1
2024-05-09T15:39:30.720Z,20.9
2024-05-09T15:49:31.111Z,20.7
2024-05-09T16:09:31.255Z,20.5
2024-05-09T16:29:31.608Z,20.5
2024-05-09T16:49:32.059Z,20.2
2024-05-09T16:59:32.199Z,20
2024-05-09T17:09:32.432Z,20
2024-05-09T17:29:32.782Z,19.8
2024-05-09T17:39:33.019Z,19.7
2024-05-09T17:49:33.293Z,19.7
2024-05-09T17:59:33.373Z,19.6
2024-05-09T18:09:33.591Z,19.3
2024-05-09T18:19:33.891Z,19.2
2024-05-09T18:29:33.954Z,19
2024-05-09T18:49:34.451Z,18.3
2024-05-09T18:59:34.549Z,17.9
2024-05-09T19:09:34.764Z,17.5
2024-05-09T19:19:35.071Z,17.2
2024-05-09T19:29:35.146Z,16.9
2024-05-09T19:39:35.356Z,16.5
2024-05-09T20:39:36.547Z,15
2024-05-09T20:49:36.791Z,14.8
2024-05-09T21:39:37.747Z,13.7
2024-05-09T21:49:37.949Z,13.4
2024-05-09T21:59:38.106Z,13.1
2024-05-09T22:19:38.520Z,12.6
2024-05-09T22:29:38.732Z,12.3
2024-05-09T22:39:38.937Z,12
2024-05-09T22:49:39.142Z,11.9
2024-05-09T22:59:39.300Z,11.8
2024-05-09T23:09:39.534Z,11.7
2024-05-09T23:19:39.735Z,11.5
2024-05-09T23:39:40.169Z,11.2
2024-05-09T23:49:40.429Z,11
2024-05-09T23:59:40.496Z,10.8
